createdAt,value
2018-10-19T00:00:24.049Z,1.83
2018-10-19T00:02:52.814Z,1.76
2018-10-19T00:05:21.455Z,1.65
2018-10-19T00:07:50.108Z,1.59
2018-10-19T00:10:18.728Z,1.55
2018-10-19T00:12:47.396Z,1.55
2018-10-19T00:15:16.019Z,1.55
2018-10-19T00:17:44.566Z,1.52
2018-10-19T00:20:13.162Z,1.47
2018-10-19T00:22:41.758Z,1.43
2018-10-19T00:25:10.366Z,1.45
2018-10-19T00:27:38.969Z,1.47
2018-10-19T00:30:08.790Z,1.46
2018-10-19T00:32:37.427Z,1.42
2018-10-19T00:35:07.508Z,1.36
2018-10-19T00:37:36.106Z,1.29
2018-10-19T00:40:04.715Z,1.23
2018-10-19T00:42:33.339Z,1.20
2018-10-19T00:45:01.950Z,1.19
2018-10-19T00:47:31.161Z,1.17
2018-10-19T00:49:59.748Z,1.11
2018-10-19T00:52:28.413Z,1.04
2018-10-19T00:54:56.993Z,0.98
2018-10-19T00:57:25.595Z,0.94
2018-10-19T00:59:54.246Z,0.98
2018-10-19T01:02:22.878Z,0.98
2018-10-19T01:04:51.461Z,1.01
2018-10-19T01:07:20.073Z,1.05
2018-10-19T01:09:48.662Z,1.06
2018-10-19T01:12:17.253Z,1.04
2018-10-19T01:14:45.831Z,0.96
2018-10-19T01:17:14.490Z,0.87
2018-10-19T01:19:43.061Z,0.85
2018-10-19T01:22:11.677Z,0.85
2018-10-19T01:24:40.266Z,0.79
2018-10-19T01:27:08.902Z,0.72
2018-10-19T01:29:37.489Z,0.65
2018-10-19T01:32:06.119Z,0.60
2018-10-19T01:34:34.719Z,0.57
2018-10-19T01:37:04.750Z,0.54
2018-10-19T01:39:33.381Z,0.49
2018-10-19T01:42:01.988Z,0.52
2018-10-19T01:44:31.981Z,0.53
2018-10-19T01:47:00.650Z,0.53
2018-10-19T01:49:29.226Z,0.52
2018-10-19T01:51:57.824Z,0.50
2018-10-19T01:54:26.430Z,0.47
2018-10-19T01:56:55.029Z,0.41
2018-10-19T01:59:23.656Z,0.41
2018-10-19T02:01:52.241Z,0.44
2018-10-19T02:04:20.906Z,0.46
2018-10-19T02:06:49.507Z,0.42
2018-10-19T02:09:18.199Z,0.32
2018-10-19T02:11:46.778Z,0.32
2018-10-19T02:14:15.392Z,0.39
2018-10-19T02:16:44.070Z,0.36
2018-10-19T02:19:12.699Z,0.34
2018-10-19T02:21:41.298Z,0.26
2018-10-19T02:24:09.906Z,0.23
2018-10-19T02:26:38.543Z,0.20
2018-10-19T02:29:07.252Z,0.13
2018-10-19T02:31:35.799Z,0.14
2018-10-19T02:34:04.421Z,0.15
2018-10-19T02:36:33.026Z,0.13
2018-10-19T02:39:01.751Z,0.13
2018-10-19T02:41:30.305Z,0.10
2018-10-19T02:43:58.987Z,0.09
2018-10-19T02:46:27.611Z,0.09
2018-10-19T02:48:56.217Z,0.09
2018-10-19T02:51:24.825Z,0.05
2018-10-19T02:53:53.396Z,0.06
2018-10-19T02:56:22.011Z,-0.01
2018-10-19T02:58:50.638Z,-0.12
2018-10-19T03:01:19.250Z,-0.05
2018-10-19T03:03:47.898Z,-0.05
2018-10-19T03:06:16.538Z,-0.02
2018-10-19T03:08:45.113Z,-0.06
2018-10-19T03:11:13.789Z,-0.08
2018-10-19T03:13:42.461Z,-0.15
2018-10-19T03:16:11.137Z,-0.18
2018-10-19T03:18:39.805Z,-0.15
2018-10-19T03:21:08.422Z,-0.09
2018-10-19T03:23:37.033Z,-0.07
2018-10-19T03:26:07.236Z,-0.02
2018-10-19T03:28:35.792Z,0.06
2018-10-19T03:31:05.208Z,0.12
2018-10-19T03:33:33.733Z,0.20
2018-10-19T03:36:02.355Z,0.32
2018-10-19T03:38:30.975Z,0.38
2018-10-19T03:40:59.598Z,0.43
2018-10-19T03:43:28.196Z,0.46
2018-10-19T03:45:56.782Z,0.51
2018-10-19T03:48:25.403Z,0.55
2018-10-19T03:50:54.010Z,0.59
2018-10-19T03:53:22.655Z,0.61
2018-10-19T03:55:51.244Z,0.65
2018-10-19T03:58:19.868Z,0.70
2018-10-19T04:00:48.475Z,0.75
2018-10-19T04:03:17.228Z,0.77
2018-10-19T04:05:45.708Z,0.77
2018-10-19T04:08:14.326Z,0.76
2018-10-19T04:10:42.918Z,0.75
2018-10-19T04:13:11.542Z,0.82
2018-10-19T04:15:40.139Z,0.91
2018-10-19T04:18:08.767Z,0.91
2018-10-19T04:20:37.375Z,0.92
2018-10-19T04:23:08.455Z,1.01
2018-10-19T04:25:38.019Z,1.08
2018-10-19T04:28:06.806Z,1.13
2018-10-19T04:30:36.554Z,1.17
2018-10-19T04:33:05.650Z,1.29
2018-10-19T04:35:34.233Z,1.37
2018-10-19T04:38:03.321Z,1.44
2018-10-19T04:40:31.892Z,1.52
2018-10-19T04:43:00.589Z,1.58
2018-10-19T04:45:29.208Z,1.64
2018-10-19T04:47:57.804Z,1.72
2018-10-19T04:50:26.398Z,1.79
2018-10-19T04:52:54.993Z,1.84
2018-10-19T04:55:23.607Z,1.91
2018-10-19T04:57:52.195Z,1.94
2018-10-19T05:00:21.648Z,1.93
2018-10-19T05:02:51.179Z,1.99
2018-10-19T05:05:19.976Z,2.06
2018-10-19T05:07:48.506Z,2.05
2018-10-19T05:10:17.111Z,2.06
2018-10-19T05:12:45.732Z,2.14
2018-10-19T05:15:14.333Z,2.23
2018-10-19T05:17:42.914Z,2.29
2018-10-19T05:20:12.613Z,2.32
2018-10-19T05:22:41.171Z,2.29
2018-10-19T05:25:11.701Z,2.34
2018-10-19T05:27:40.294Z,2.36
2018-10-19T05:30:11.153Z,2.39
2018-10-19T05:32:40.456Z,2.41
2018-10-19T05:35:09.189Z,2.47
2018-10-19T05:37:38.768Z,2.53
2018-10-19T05:40:08.433Z,2.58
2018-10-19T05:42:37.187Z,2.68
2018-10-19T05:45:08.139Z,2.76
2018-10-19T05:47:36.783Z,2.80
2018-10-19T05:50:06.469Z,2.84
2018-10-19T05:52:35.152Z,2.90
2018-10-19T05:55:03.756Z,2.94
2018-10-19T05:57:32.395Z,2.99
2018-10-19T06:00:01.002Z,3.03
2018-10-19T06:02:29.990Z,3.04
2018-10-19T06:04:58.646Z,3.05
2018-10-19T06:07:27.272Z,3.08
2018-10-19T06:09:55.886Z,3.12
2018-10-19T06:12:24.503Z,3.18
2018-10-19T06:14:53.111Z,3.26
2018-10-19T06:17:21.737Z,3.26
2018-10-19T06:19:50.331Z,3.35
2018-10-19T06:22:18.943Z,3.42
2018-10-19T06:24:47.621Z,3.45
2018-10-19T06:27:16.247Z,3.51
2018-10-19T06:29:44.835Z,3.54
2018-10-19T06:32:13.742Z,3.59
2018-10-19T06:34:42.319Z,3.63
2018-10-19T06:37:10.943Z,3.62
2018-10-19T06:39:39.595Z,3.61
2018-10-19T06:42:08.303Z,3.67
2018-10-19T06:44:36.893Z,3.77
2018-10-19T06:47:05.898Z,3.90
2018-10-19T06:49:34.491Z,4.03
2018-10-19T06:52:03.133Z,4.09
2018-10-19T06:54:31.735Z,4.18
2018-10-19T06:57:00.370Z,4.25
2018-10-19T06:59:29.028Z,4.33
2018-10-19T07:01:57.616Z,4.41
2018-10-19T07:04:26.271Z,4.54
2018-10-19T07:06:54.879Z,4.65
2018-10-19T07:09:23.502Z,4.76
2018-10-19T07:11:52.111Z,4.89
2018-10-19T07:14:20.746Z,5.00
2018-10-19T07:16:49.352Z,5.14
2018-10-19T07:19:17.975Z,5.18
2018-10-19T07:21:46.581Z,5.27
2018-10-19T07:24:15.246Z,5.23
2018-10-19T07:26:43.845Z,5.35
2018-10-19T07:29:12.537Z,5.44
2018-10-19T07:31:41.126Z,5.55
2018-10-19T07:34:09.753Z,5.65
2018-10-19T07:36:38.369Z,5.77
2018-10-19T07:39:08.635Z,5.92
2018-10-19T07:41:37.346Z,6.04
2018-10-19T07:44:06.344Z,6.15
2018-10-19T07:46:34.974Z,6.27
2018-10-19T07:49:03.581Z,6.40
2018-10-19T07:51:32.215Z,6.51
2018-10-19T07:54:00.975Z,6.62
2018-10-19T07:56:29.580Z,6.74
2018-10-19T07:58:58.253Z,6.80
2018-10-19T08:01:26.807Z,6.88
2018-10-19T08:03:55.410Z,7.03
2018-10-19T08:06:23.991Z,7.18
2018-10-19T08:08:52.605Z,7.34
2018-10-19T08:11:21.248Z,7.44
2018-10-19T08:13:49.858Z,7.57
2018-10-19T08:16:18.457Z,7.72
2018-10-19T08:18:47.026Z,7.86
2018-10-19T08:21:15.667Z,7.97
2018-10-19T08:23:44.579Z,8.08
2018-10-19T08:26:13.252Z,8.13
2018-10-19T08:28:41.813Z,8.24
2018-10-19T08:31:10.422Z,8.35
2018-10-19T08:33:39.018Z,8.47
2018-10-19T08:36:07.646Z,8.58
2018-10-19T08:38:36.251Z,8.62
2018-10-19T08:41:04.977Z,8.63
2018-10-19T08:43:33.529Z,8.58
2018-10-19T08:46:07.337Z,8.54
2018-10-19T08:48:36.027Z,8.45
2018-10-19T08:51:04.767Z,8.28
2018-10-19T08:53:33.480Z,8.19
2018-10-19T08:56:02.091Z,8.14
2018-10-19T08:58:30.664Z,8.22
2018-10-19T09:00:59.289Z,8.34
2018-10-19T09:03:27.886Z,8.63
2018-10-19T09:05:56.519Z,8.90
2018-10-19T09:08:25.111Z,9.20
2018-10-19T09:10:53.807Z,9.51
2018-10-19T09:13:22.365Z,9.78
2018-10-19T09:15:50.976Z,10.03
2018-10-19T09:18:19.609Z,10.25
2018-10-19T09:20:48.294Z,10.42
2018-10-19T09:23:16.954Z,10.51
2018-10-19T09:25:45.513Z,10.67
2018-10-19T09:28:14.147Z,10.98
2018-10-19T09:30:42.739Z,11.28
2018-10-19T09:33:11.391Z,11.59
2018-10-19T09:35:40.067Z,11.76
2018-10-19T09:38:08.678Z,11.74
2018-10-19T09:40:37.265Z,11.38
2018-10-19T09:43:06.071Z,11.16
2018-10-19T09:45:34.659Z,11.15
2018-10-19T09:48:03.667Z,11.21
2018-10-19T09:50:32.261Z,11.26
2018-10-19T09:53:00.903Z,11.30
2018-10-19T09:55:29.531Z,11.26
2018-10-19T09:57:58.159Z,11.00
2018-10-19T10:00:32.078Z,10.82
2018-10-19T10:03:00.770Z,10.77
2018-10-19T10:05:29.400Z,10.73
2018-10-19T10:07:58.147Z,10.93
2018-10-19T10:10:26.711Z,11.10
2018-10-19T10:12:55.345Z,11.42
2018-10-19T10:15:24.033Z,11.78
2018-10-19T10:17:52.598Z,11.91
2018-10-19T10:20:21.203Z,12.06
2018-10-19T10:22:49.831Z,12.37
2018-10-19T10:25:18.443Z,12.69
2018-10-19T10:27:47.078Z,12.78
2018-10-19T10:30:15.676Z,12.61
2018-10-19T10:32:44.304Z,12.76
2018-10-19T10:35:12.898Z,12.62
2018-10-19T10:37:41.518Z,12.75
2018-10-19T10:40:10.186Z,12.44
2018-10-19T10:42:39.127Z,12.28
2018-10-19T10:45:08.252Z,11.97
2018-10-19T10:47:36.832Z,11.76
2018-10-19T10:50:05.995Z,11.50
2018-10-19T10:52:34.583Z,11.23
2018-10-19T10:55:03.342Z,11.06
2018-10-19T10:57:31.889Z,10.90
2018-10-19T11:00:00.493Z,10.76
2018-10-19T11:02:29.425Z,10.91
2018-10-19T11:04:58.063Z,11.37
2018-10-19T11:07:26.797Z,11.87
2018-10-19T11:09:55.328Z,12.35
2018-10-19T11:12:23.998Z,12.66
2018-10-19T11:14:53.511Z,12.85
2018-10-19T11:17:22.066Z,13.14
2018-10-19T11:19:50.653Z,13.22
2018-10-19T11:22:19.222Z,13.17
2018-10-19T11:24:47.836Z,13.03
2018-10-19T11:27:16.407Z,13.18
2018-10-19T11:29:45.008Z,13.42
2018-10-19T11:32:13.583Z,13.54
2018-10-19T11:34:42.153Z,13.78
2018-10-19T11:37:10.758Z,14.03
2018-10-19T11:39:49.328Z,14.21
2018-10-19T11:42:17.932Z,14.24
2018-10-19T11:44:46.531Z,14.44
2018-10-19T11:47:15.152Z,14.62
2018-10-19T11:49:43.741Z,14.79
2018-10-19T11:52:12.392Z,14.90
2018-10-19T11:54:41.103Z,14.71
2018-10-19T11:57:09.874Z,14.27
2018-10-19T11:59:38.342Z,13.75
2018-10-19T12:02:07.871Z,13.36
2018-10-19T12:04:36.477Z,13.04
2018-10-19T12:07:05.519Z,12.71
2018-10-19T12:09:34.049Z,12.49
2018-10-19T12:12:02.696Z,12.44
2018-10-19T12:14:31.293Z,12.57
2018-10-19T12:17:00.071Z,12.63
2018-10-19T12:19:28.564Z,12.45
2018-10-19T12:21:57.186Z,12.21
2018-10-19T12:24:25.766Z,12.03
2018-10-19T12:26:54.391Z,12.06
2018-10-19T12:29:22.992Z,12.41
2018-10-19T12:31:51.627Z,12.57
2018-10-19T12:34:20.239Z,12.51
2018-10-19T12:36:48.855Z,12.38
2018-10-19T12:39:17.526Z,12.12
2018-10-19T12:41:46.098Z,11.80
2018-10-19T12:44:14.733Z,11.56
2018-10-19T12:46:54.509Z,11.41
2018-10-19T12:49:24.183Z,11.54
2018-10-19T12:51:52.803Z,11.85
2018-10-19T12:54:21.456Z,12.25
2018-10-19T12:56:50.043Z,12.52
2018-10-19T12:59:18.658Z,12.76
2018-10-19T13:01:47.293Z,12.97
2018-10-19T13:04:15.903Z,13.17
2018-10-19T13:06:44.502Z,13.23
2018-10-19T13:09:13.971Z,13.28
2018-10-19T13:11:42.635Z,13.40
2018-10-19T13:14:11.514Z,13.41
2018-10-19T13:16:40.178Z,13.32
2018-10-19T13:19:08.845Z,13.35
2018-10-19T13:21:37.400Z,13.43
2018-10-19T13:24:06.297Z,13.43
2018-10-19T13:26:34.949Z,13.44
2018-10-19T13:29:03.568Z,13.39
2018-10-19T13:31:32.150Z,13.40
2018-10-19T13:34:00.797Z,13.41
2018-10-19T13:36:29.381Z,13.35
2018-10-19T13:38:58.089Z,13.35
2018-10-19T13:41:26.651Z,13.40
2018-10-19T13:43:55.262Z,13.33
2018-10-19T13:46:23.951Z,13.29
2018-10-19T13:48:52.550Z,13.22
2018-10-19T13:51:21.143Z,13.21
2018-10-19T13:53:49.734Z,13.21
2018-10-19T13:56:18.311Z,13.19
2018-10-19T13:58:46.900Z,13.10
2018-10-19T14:01:15.481Z,13.01
2018-10-19T14:03:44.091Z,12.94
2018-10-19T14:06:12.680Z,12.92
2018-10-19T14:08:41.298Z,12.90
2018-10-19T14:11:09.997Z,12.87
2018-10-19T14:13:38.872Z,12.88
2018-10-19T14:16:07.442Z,12.90
2018-10-19T14:18:36.037Z,12.77
2018-10-19T14:21:04.666Z,12.64
2018-10-19T14:23:33.273Z,12.58
2018-10-19T14:26:01.867Z,12.52
2018-10-19T14:28:30.458Z,12.58
2018-10-19T14:30:59.027Z,12.60
2018-10-19T14:33:27.843Z,12.61
2018-10-19T14:35:56.367Z,12.61
2018-10-19T14:38:24.970Z,12.60
2018-10-19T14:40:53.597Z,12.55
2018-10-19T14:43:22.199Z,12.46
2018-10-19T14:45:50.821Z,12.43
2018-10-19T14:48:19.411Z,12.41
2018-10-19T14:50:48.027Z,12.30
2018-10-19T14:53:16.671Z,12.25
2018-10-19T14:55:45.267Z,12.18
2018-10-19T14:58:13.849Z,12.13
2018-10-19T15:00:42.472Z,12.08
2018-10-19T15:03:11.115Z,12.01
2018-10-19T15:05:39.718Z,11.91
2018-10-19T15:08:08.295Z,11.83
2018-10-19T15:10:37.052Z,11.74
2018-10-19T15:13:05.666Z,11.67
2018-10-19T15:15:34.283Z,11.56
2018-10-19T15:18:02.925Z,11.41
2018-10-19T15:20:31.512Z,11.27
2018-10-19T15:23:00.106Z,11.20
2018-10-19T15:25:28.710Z,11.14
2018-10-19T15:27:57.312Z,11.01
2018-10-19T15:30:25.937Z,10.90
2018-10-19T15:32:54.525Z,10.75
2018-10-19T15:35:23.185Z,10.66
2018-10-19T15:37:51.806Z,10.57
2018-10-19T15:40:20.417Z,10.46
2018-10-19T15:42:49.012Z,10.33
2018-10-19T15:45:17.640Z,10.21
2018-10-19T15:47:46.266Z,10.09
2018-10-19T15:50:14.878Z,9.99
2018-10-19T15:52:43.471Z,9.89
2018-10-19T15:55:12.110Z,9.77
2018-10-19T15:57:40.706Z,9.56
2018-10-19T16:00:10.445Z,9.33
2018-10-19T16:02:39.027Z,9.12
2018-10-19T16:05:07.711Z,8.97
2018-10-19T16:07:36.323Z,8.83
2018-10-19T16:10:05.653Z,8.70
2018-10-19T16:12:34.272Z,8.55
2018-10-19T16:15:02.955Z,8.36
2018-10-19T16:17:31.585Z,8.19
2018-10-19T16:20:00.203Z,8.03
2018-10-19T16:22:28.815Z,7.84
2018-10-19T16:24:57.422Z,7.66
2018-10-19T16:27:26.082Z,7.56
2018-10-19T16:29:54.730Z,7.55
2018-10-19T16:32:23.323Z,7.57
2018-10-19T16:34:51.951Z,7.52
2018-10-19T16:37:20.557Z,7.45
2018-10-19T16:39:49.179Z,7.33
2018-10-19T16:42:18.007Z,7.28
2018-10-19T16:44:46.446Z,7.32
2018-10-19T16:47:15.045Z,7.37
2018-10-19T16:49:43.629Z,7.28
2018-10-19T16:52:12.260Z,7.22
2018-10-19T16:54:40.865Z,7.25
2018-10-19T16:57:09.558Z,7.31
2018-10-19T16:59:38.109Z,7.38
2018-10-19T17:02:06.747Z,7.45
2018-10-19T17:04:35.362Z,7.48
2018-10-19T17:07:04.002Z,7.49
2018-10-19T17:09:32.593Z,7.47
2018-10-19T17:12:01.239Z,7.46
2018-10-19T17:14:29.860Z,7.42
2018-10-19T17:16:58.473Z,7.41
2018-10-19T17:19:27.135Z,7.43
2018-10-19T17:21:55.736Z,7.49
2018-10-19T17:24:24.377Z,7.53
2018-10-19T17:26:53.179Z,7.54
2018-10-19T17:29:21.806Z,7.52
2018-10-19T17:31:50.431Z,7.44
2018-10-19T17:34:19.107Z,7.38
2018-10-19T17:36:47.725Z,7.29
2018-10-19T17:39:16.394Z,7.19
2018-10-19T17:41:45.044Z,7.13
2018-10-19T17:44:13.652Z,7.06
2018-10-19T17:46:42.291Z,6.98
2018-10-19T17:49:10.904Z,6.88
2018-10-19T17:51:39.515Z,6.81
2018-10-19T17:54:08.166Z,6.72
2018-10-19T17:56:36.895Z,6.68
2018-10-19T17:59:05.660Z,6.58
2018-10-19T18:01:34.313Z,6.43
2018-10-19T18:04:03.050Z,6.38
2018-10-19T18:06:31.733Z,6.27
2018-10-19T18:09:00.863Z,6.17
2018-10-19T18:11:29.545Z,6.08
2018-10-19T18:13:58.142Z,6.02
2018-10-19T18:16:26.758Z,5.91
2018-10-19T18:18:55.340Z,5.82
2018-10-19T18:21:24.005Z,5.71
2018-10-19T18:23:52.595Z,5.67
2018-10-19T18:26:21.215Z,5.62
2018-10-19T18:28:49.822Z,5.47
2018-10-19T18:31:18.446Z,5.42
2018-10-19T18:33:47.056Z,5.42
2018-10-19T18:36:15.675Z,5.34
2018-10-19T18:38:44.305Z,5.32
2018-10-19T18:41:12.936Z,5.25
2018-10-19T18:43:41.548Z,5.25
2018-10-19T18:46:10.228Z,5.23
2018-10-19T18:48:38.851Z,5.13
2018-10-19T18:51:07.543Z,5.16
2018-10-19T18:53:36.217Z,5.20
2018-10-19T18:56:05.043Z,5.23
2018-10-19T18:58:33.816Z,5.28
2018-10-19T19:01:02.435Z,5.32
2018-10-19T19:03:31.056Z,5.36
2018-10-19T19:05:59.830Z,5.31
2018-10-19T19:08:30.090Z,5.29
2018-10-19T19:10:58.759Z,5.25
2018-10-19T19:13:29.772Z,5.22
2018-10-19T19:15:58.731Z,5.11
2018-10-19T19:18:27.560Z,4.93
2018-10-19T19:20:56.193Z,4.80
2018-10-19T19:23:24.803Z,4.69
2018-10-19T19:25:58.637Z,4.62
2018-10-19T19:28:27.273Z,4.61
2018-10-19T19:30:55.900Z,4.59
2018-10-19T19:33:29.622Z,4.61
2018-10-19T19:35:58.206Z,4.59
2018-10-19T19:38:26.834Z,4.60
2018-10-19T19:41:00.636Z,4.56
2018-10-19T19:43:29.514Z,4.44
2018-10-19T19:45:58.110Z,4.43
2018-10-19T19:48:31.827Z,4.50
2018-10-19T19:51:00.432Z,4.48
2018-10-19T19:53:29.029Z,4.43
2018-10-19T19:55:57.684Z,4.30
2018-10-19T19:58:26.263Z,4.23
2018-10-19T20:00:54.860Z,4.07
2018-10-19T20:03:23.703Z,3.80
2018-10-19T20:05:52.304Z,3.75
2018-10-19T20:08:20.914Z,3.69
2018-10-19T20:10:49.538Z,3.69
2018-10-19T20:13:18.180Z,3.73
2018-10-19T20:15:46.755Z,3.77
2018-10-19T20:18:15.380Z,3.85
2018-10-19T20:20:44.004Z,3.88
2018-10-19T20:23:12.648Z,3.78
2018-10-19T20:25:41.262Z,3.73
2018-10-19T20:28:09.891Z,3.68
2018-10-19T20:30:38.468Z,3.58
2018-10-19T20:33:07.076Z,3.53
2018-10-19T20:35:35.655Z,3.49
2018-10-19T20:38:04.368Z,3.47
2018-10-19T20:40:32.978Z,3.49
2018-10-19T20:43:01.622Z,3.46
2018-10-19T20:45:30.229Z,3.38
2018-10-19T20:47:58.879Z,3.29
2018-10-19T20:50:27.484Z,3.18
2018-10-19T20:52:56.726Z,3.09
2018-10-19T20:55:25.359Z,3.06
2018-10-19T20:57:53.979Z,3.03
2018-10-19T21:00:22.647Z,3.04
2018-10-19T21:02:51.268Z,3.06
2018-10-19T21:05:19.898Z,3.09
2018-10-19T21:07:48.495Z,2.94
2018-10-19T21:10:17.132Z,2.79
2018-10-19T21:12:45.721Z,2.74
2018-10-19T21:15:14.849Z,2.68
2018-10-19T21:17:43.707Z,2.66
2018-10-19T21:20:13.115Z,2.73
2018-10-19T21:22:41.742Z,2.75
2018-10-19T21:25:11.683Z,2.72
2018-10-19T21:27:40.301Z,2.70
2018-10-19T21:30:10.327Z,2.59
2018-10-19T21:32:38.971Z,2.49
2018-10-19T21:35:07.659Z,2.48
2018-10-19T21:37:36.314Z,2.50
2018-10-19T21:40:05.071Z,2.45
2018-10-19T21:42:33.715Z,2.30
2018-10-19T21:45:02.336Z,2.16
2018-10-19T21:47:30.920Z,2.07
2018-10-19T21:49:59.524Z,2.05
2018-10-19T21:52:28.153Z,2.05
2018-10-19T21:54:56.791Z,2.03
2018-10-19T21:57:25.379Z,2.04
2018-10-19T21:59:54.006Z,2.02
2018-10-19T22:02:22.622Z,2.02
2018-10-19T22:04:51.242Z,2.00
2018-10-19T22:07:19.856Z,2.00
2018-10-19T22:09:48.455Z,2.03
2018-10-19T22:12:17.078Z,1.99
2018-10-19T22:14:45.705Z,1.91
2018-10-19T22:17:14.375Z,1.88
2018-10-19T22:19:42.958Z,1.87
2018-10-19T22:22:11.554Z,2.00
2018-10-19T22:24:40.194Z,2.10
2018-10-19T22:27:08.797Z,2.21
2018-10-19T22:29:37.419Z,2.31
2018-10-19T22:32:06.112Z,2.33
2018-10-19T22:34:34.745Z,2.36
2018-10-19T22:37:03.401Z,2.32
2018-10-19T22:39:31.994Z,2.32
2018-10-19T22:42:00.607Z,2.33
2018-10-19T22:44:29.288Z,2.34
2018-10-19T22:46:58.156Z,2.33
2018-10-19T22:49:26.763Z,2.36
2018-10-19T22:51:55.375Z,2.40
2018-10-19T22:54:24.011Z,2.41
2018-10-19T22:56:52.631Z,2.41
2018-10-19T22:59:21.301Z,2.41
2018-10-19T23:01:49.895Z,2.34
2018-10-19T23:04:18.554Z,2.23
2018-10-19T23:06:47.490Z,2.13
2018-10-19T23:09:16.070Z,2.07
2018-10-19T23:11:44.749Z,2.03
2018-10-19T23:14:13.344Z,2.01
2018-10-19T23:16:41.949Z,2.02
2018-10-19T23:19:10.606Z,2.02
2018-10-19T23:21:39.224Z,2.04
2018-10-19T23:24:08.399Z,2.05
2018-10-19T23:26:37.026Z,2.09
2018-10-19T23:29:06.040Z,2.07
2018-10-19T23:31:34.798Z,2.05
2018-10-19T23:34:03.249Z,2.05
2018-10-19T23:36:31.854Z,2.01
2018-10-19T23:39:00.482Z,1.99
2018-10-19T23:41:29.190Z,2.01
2018-10-19T23:43:57.786Z,1.91
2018-10-19T23:46:26.368Z,1.87
2018-10-19T23:48:54.987Z,1.87
2018-10-19T23:51:23.569Z,1.87
2018-10-19T23:53:52.176Z,1.91
2018-10-19T23:56:20.757Z,2.01
2018-10-19T23:58:49.411Z,2.09
